Time;durP1;ratioP1;P1;durP2;ratioP2;P2;SDS_P1;SDS_P2;PMS_P1;PMS_P2;Temp;Humidity;BMP_temperature;BMP_pressure;BME280_temperature;BME280_humidity;BME280_pressure;Samples;Min_cycle;Max_cycle;Signal;HPM_P1;HPM_P2
2022/11/08 00:01:32;;;;;;;121.55;54.60;;;358.50;2329.60;;;;;;5111654;28;20058;-79
2022/11/08 00:04:00;;;;;;;114.80;54.42;;;358.50;2329.60;;;;;;5076263;28;20021;-78
2022/11/08 00:14:40;;;;;;;125.70;55.42;;;358.50;2329.60;;;;;;5084079;28;20088;-79
2022/11/08 00:17:06;;;;;;;131.93;59.67;;;358.40;2329.60;;;;;;5086496;28;20465;-78
2022/11/08 00:19:31;;;;;;;124.78;58.45;;;358.40;2329.60;;;;;;5087499;28;20088;-78
2022/11/08 00:21:57;;;;;;;113.20;55.90;;;333.70;2329.60;;;;;;5088987;28;20032;-79
2022/11/08 00:24:23;;;;;;;130.23;59.15;;;333.70;2022.40;;;;;;5085543;28;20039;-78
2022/11/08 00:26:48;;;;;;;135.88;59.55;;;333.70;2329.60;;;;;;5087014;28;20020;-79
2022/11/08 00:29:14;;;;;;;127.13;56.33;;;333.70;2252.80;;;;;;5084829;28;20032;-78
2022/11/08 00:31:40;;;;;;;128.48;57.70;;;333.60;2329.60;;;;;;5087762;28;20021;-78
2022/11/08 00:34:05;;;;;;;122.47;54.17;;;333.60;2329.60;;;;;;5080844;28;20734;-78
2022/11/08 00:36:31;;;;;;;122.82;54.97;;;333.60;2329.60;;;;;;5114254;28;20054;-78
2022/11/08 00:38:57;;;;;;;117.57;57.63;;;333.50;2329.60;;;;;;5113861;28;20028;-78
2022/11/08 00:41:22;;;;;;;133.32;57.28;;;333.60;2329.60;;;;;;5099696;28;20067;-79
2022/11/08 00:43:48;;;;;;;121.75;55.42;;;333.50;2329.60;;;;;;5113854;28;20028;-78
2022/11/08 00:46:14;;;;;;;126.10;56.83;;;333.50;2329.60;;;;;;5110806;28;20039;-78
2022/11/08 00:48:39;;;;;;;128.55;57.78;;;333.50;2329.60;;;;;;5080814;28;20474;-79
2022/11/08 00:51:07;;;;;;;134.52;59.20;;;333.50;2329.60;;;;;;5081155;28;20020;-78
2022/11/08 00:53:35;;;;;;;113.88;56.58;;;333.60;2329.60;;;;;;5089507;28;20027;-79
2022/11/08 00:56:02;;;;;;;128.50;58.05;;;333.60;2329.60;;;;;;5087033;28;20028;-79
2022/11/08 00:58:28;;;;;;;131.30;59.83;;;333.60;2329.60;;;;;;5082351;28;20035;-78
2022/11/08 01:00:55;;;;;;;134.63;61.10;;;333.60;2329.60;;;;;;5088690;28;20032;-78
2022/11/08 01:03:22;;;;;;;133.90;61.88;;;333.60;2329.60;;;;;;5083503;28;20052;-78
2022/11/08 01:05:49;;;;;;;140.68;62.92;;;333.70;2329.60;;;;;;5074186;28;20536;-79
2022/11/08 01:08:15;;;;;;;128.00;58.30;;;333.60;2329.60;;;;;;5086818;28;20036;-78
2022/11/08 01:10:43;;;;;;;125.57;57.70;;;333.60;2329.60;;;;;;5082994;28;20499;-78
2022/11/08 01:13:09;;;;;;;125.05;56.80;;;333.60;2329.60;;;;;;5085358;28;20039;-78
2022/11/08 01:15:36;;;;;;;125.03;58.83;;;333.60;2329.60;;;;;;5083688;28;20036;-78
2022/11/08 01:18:06;;;;;;;120.13;58.83;;;333.50;2329.60;;;;;;5082068;28;20024;-77
2022/11/08 01:20:32;;;;;;;132.95;58.00;;;333.60;2329.60;;;;;;5075754;28;20055;-78
2022/11/08 01:22:58;;;;;;;107.97;54.38;;;333.60;2304.00;;;;;;5071684;28;20473;-78
2022/11/08 01:25:24;;;;;;;121.78;54.88;;;333.50;2329.60;;;;;;5094434;28;20027;-77
2022/11/08 01:27:50;;;;;;;119.03;55.72;;;333.50;2329.60;;;;;;5090370;28;20381;-78
2022/11/08 01:30:16;;;;;;;119.63;55.72;;;333.60;2329.60;;;;;;5078678;28;20023;-80
2022/11/08 01:32:41;;;;;;;131.32;58.83;;;333.60;2227.20;;;;;;5081807;28;20020;-78
2022/11/08 01:35:08;;;;;;;125.93;59.67;;;333.70;2329.60;;;;;;5085828;28;20181;-77
2022/11/08 01:37:33;;;;;;;120.55;57.80;;;333.70;2329.60;;;;;;5080840;28;20025;-78
2022/11/08 01:39:59;;;;;;;111.68;53.75;;;333.70;2329.60;;;;;;5105685;28;20030;-78
2022/11/08 01:42:32;;;;;;;125.20;56.42;;;333.70;2329.60;;;;;;5083455;28;20489;-78
2022/11/08 01:44:58;;;;;;;120.63;57.70;;;333.70;2329.60;;;;;;5085962;28;20017;-78
2022/11/08 01:47:24;;;;;;;108.43;52.90;;;333.70;2329.60;;;;;;5089222;28;20545;-78
2022/11/08 01:49:55;;;;;;;111.28;52.72;;;333.70;2329.60;;;;;;5083429;28;20107;-78
2022/11/08 01:52:34;;;;;;;115.72;54.83;;;333.70;2329.60;;;;;;5079937;28;20027;-78
2022/11/08 01:55:38;;;;;;;113.53;52.50;;;333.70;2329.60;;;;;;5088270;28;20089;-77
2022/11/08 01:58:09;;;;;;;119.53;54.15;;;333.70;2329.60;;;;;;5005746;28;20116;-78
2022/11/08 02:00:39;;;;;;;114.75;55.20;;;358.40;2329.60;;;;;;5005812;28;20075;-78
2022/11/08 02:03:08;;;;;;;114.50;59.78;;;358.40;2329.60;;;;;;5005142;28;20038;-78
2022/11/08 02:05:34;;;;;;;117.05;57.22;;;358.40;2329.60;;;;;;5002388;28;20137;-78
2022/11/08 02:08:25;;;;;;;128.32;61.72;;;358.40;2329.60;;;;;;5008316;28;20117;-78
2022/11/08 02:10:52;;;;;;;122.40;60.35;;;358.40;2329.60;;;;;;5005337;28;20092;-77
2022/11/08 02:13:22;;;;;;;121.05;56.97;;;358.40;2329.60;;;;;;4999487;28;20030;-76
2022/11/08 02:15:48;;;;;;;107.25;52.67;;;358.40;2329.60;;;;;;4993840;28;20030;-76
2022/11/08 02:18:15;;;;;;;113.68;54.10;;;333.70;2329.60;;;;;;5002879;28;20041;-77
2022/11/08 02:20:58;;;;;;;103.05;52.13;;;333.70;2329.60;;;;;;5010206;28;20496;-76
2022/11/08 02:23:25;;;;;;;116.03;51.65;;;333.70;2329.60;;;;;;5013089;28;20069;-77
2022/11/08 02:25:51;;;;;;;112.55;54.00;;;333.70;2329.60;;;;;;4993741;28;20018;-76
2022/11/08 02:28:17;;;;;;;110.78;55.78;;;333.70;2329.60;;;;;;5030471;28;20040;-77
2022/11/08 02:30:43;;;;;;;120.60;55.22;;;333.70;2329.60;;;;;;5070358;28;20027;-77
2022/11/08 02:33:21;;;;;;;111.22;54.38;;;333.70;2329.60;;;;;;5074299;28;20021;-77
2022/11/08 02:35:53;;;;;;;119.45;54.30;;;333.70;2329.60;;;;;;5079982;28;20473;-76
2022/11/08 02:38:19;;;;;;;115.00;53.03;;;333.70;2329.60;;;;;;5075053;28;20102;-76
2022/11/08 02:40:54;;;;;;;110.03;54.90;;;333.70;2329.60;;;;;;5075945;28;20028;-77
2022/11/08 02:43:20;;;;;;;112.00;53.95;;;333.60;2329.60;;;;;;5075777;28;20032;-78
2022/11/08 02:45:46;;;;;;;126.53;56.88;;;333.60;2329.60;;;;;;5076866;28;20024;-77
2022/11/08 02:48:12;;;;;;;121.55;55.83;;;333.60;2329.60;;;;;;5074969;28;20032;-78
2022/11/08 02:50:38;;;;;;;122.75;56.28;;;333.60;2329.60;;;;;;5080528;28;20021;-76
2022/11/08 02:53:05;;;;;;;120.13;55.75;;;333.60;2329.60;;;;;;5070105;28;20055;-76
2022/11/08 02:55:31;;;;;;;117.65;57.25;;;333.60;2329.60;;;;;;5072970;28;20020;-77
2022/11/08 02:57:57;;;;;;;122.03;55.20;;;333.50;2329.60;;;;;;5070193;28;20036;-76
2022/11/08 03:00:23;;;;;;;119.97;55.72;;;333.60;2329.60;;;;;;5073135;28;20461;-76
2022/11/08 03:02:54;;;;;;;121.22;54.50;;;333.50;2329.60;;;;;;5080645;28;20028;-78
2022/11/08 03:05:20;;;;;;;108.55;54.45;;;333.50;2329.60;;;;;;5078216;28;20027;-77
2022/11/08 03:07:46;;;;;;;107.65;52.58;;;333.50;2329.60;;;;;;5078459;28;20032;-77
2022/11/08 03:10:13;;;;;;;107.75;51.03;;;333.50;2329.60;;;;;;5076987;28;20043;-77
2022/11/08 03:12:39;;;;;;;104.38;49.60;;;333.60;2329.60;;;;;;5070818;28;20044;-76
2022/11/08 03:15:06;;;;;;;105.32;52.05;;;333.50;2329.60;;;;;;5072453;28;20481;-77
2022/11/08 03:17:32;;;;;;;110.38;51.47;;;333.60;2329.60;;;;;;5078460;28;20047;-76
2022/11/08 03:19:58;;;;;;;106.85;48.97;;;333.60;2329.60;;;;;;5072561;28;20024;-77
2022/11/08 03:22:24;;;;;;;113.80;51.90;;;333.60;2329.60;;;;;;5075375;28;20088;-76
2022/11/08 03:24:50;;;;;;;109.20;51.90;;;333.60;2329.60;;;;;;5069269;28;20119;-77
2022/11/08 03:27:17;;;;;;;101.38;51.67;;;333.60;2329.60;;;;;;5069830;28;20128;-76
2022/11/08 03:29:44;;;;;;;105.55;51.60;;;333.60;2329.60;;;;;;5072201;28;20473;-77
2022/11/08 03:32:10;;;;;;;101.72;52.03;;;333.60;2329.60;;;;;;5081195;28;20028;-77
2022/11/08 03:34:35;;;;;;;102.32;51.97;;;333.50;2329.60;;;;;;5072327;28;20036;-77
2022/11/08 03:37:03;;;;;;;101.72;49.97;;;333.50;2329.60;;;;;;5079267;28;20024;-76
2022/11/08 03:39:28;;;;;;;105.45;49.72;;;333.50;2329.60;;;;;;5070737;28;20064;-77
2022/11/08 03:41:54;;;;;;;97.63;48.55;;;333.50;2329.60;;;;;;5076543;28;20515;-77
2022/11/08 03:44:20;;;;;;;90.43;49.13;;;333.50;2329.60;;;;;;5074428;28;20062;-76
2022/11/08 03:46:46;;;;;;;89.55;45.25;;;333.50;2329.60;;;;;;5081821;28;20069;-76
2022/11/08 03:49:11;;;;;;;97.57;46.75;;;333.50;2329.60;;;;;;5074708;28;20021;-76
2022/11/08 03:51:37;;;;;;;91.18;45.05;;;333.50;2329.60;;;;;;5076302;28;20024;-76
2022/11/08 03:54:03;;;;;;;97.25;44.42;;;333.50;2329.60;;;;;;5076124;28;20399;-76
2022/11/08 03:56:29;;;;;;;84.05;44.33;;;333.50;2329.60;;;;;;5078383;28;20032;-77
2022/11/08 03:58:55;;;;;;;83.63;44.92;;;333.50;2329.60;;;;;;5083251;28;20503;-76
2022/11/08 04:01:20;;;;;;;92.53;44.05;;;333.50;2329.60;;;;;;5074272;28;20057;-76
2022/11/08 04:03:46;;;;;;;85.72;43.25;;;333.50;2329.60;;;;;;5078432;28;20388;-77
2022/11/08 04:06:11;;;;;;;89.72;44.85;;;333.50;2329.60;;;;;;5092853;28;20032;-76
2022/11/08 04:08:37;;;;;;;88.97;43.65;;;333.50;2329.60;;;;;;5098355;28;20396;-76
2022/11/08 04:16:32;;;;;;;99.20;48.67;;;333.50;2329.60;;;;;;5082712;28;20031;-77
2022/11/08 04:21:45;;;;;;;92.55;45.75;;;333.40;2329.60;;;;;;5079463;28;20097;-77
2022/11/08 04:24:11;;;;;;;92.93;46.35;;;333.40;2329.60;;;;;;5073717;28;20048;-76
2022/11/08 04:26:39;;;;;;;92.05;46.92;;;333.40;2329.60;;;;;;5077533;28;20081;-76
2022/11/08 04:29:05;;;;;;;89.72;45.67;;;333.40;2329.60;;;;;;5078103;28;20021;-76
2022/11/08 04:31:31;;;;;;;89.50;44.78;;;333.40;2329.60;;;;;;5083840;28;20028;-76
2022/11/08 04:33:56;;;;;;;90.30;45.70;;;333.40;2329.60;;;;;;5075336;28;20063;-76
2022/11/08 04:36:22;;;;;;;91.78;43.83;;;333.30;2329.60;;;;;;5079173;28;20427;-76
2022/11/08 04:38:49;;;;;;;87.13;45.75;;;333.30;2329.60;;;;;;5075295;28;20040;-76
2022/11/08 04:41:18;;;;;;;100.30;44.67;;;333.30;2329.60;;;;;;5074533;28;20101;-76
2022/11/08 04:43:44;;;;;;;85.50;45.83;;;333.30;2329.60;;;;;;5076551;28;20097;-76
2022/11/08 04:46:14;;;;;;;87.57;45.28;;;333.40;2329.60;;;;;;5097397;28;20167;-76
2022/11/08 04:48:41;;;;;;;81.13;42.35;;;333.40;2329.60;;;;;;5073841;28;20103;-76
2022/11/08 04:51:14;;;;;;;86.30;42.72;;;333.40;2329.60;;;;;;5074864;28;20024;-77
2022/11/08 04:53:39;;;;;;;78.40;41.80;;;333.40;2329.60;;;;;;5077910;28;20078;-76
2022/11/08 04:56:08;;;;;;;80.35;42.50;;;333.40;2329.60;;;;;;5072913;28;20500;-77
2022/11/08 04:58:36;;;;;;;92.88;43.45;;;333.30;2329.60;;;;;;5079026;28;20020;-76
2022/11/08 05:01:04;;;;;;;85.03;42.13;;;333.20;2329.60;;;;;;5074946;28;20028;-77
2022/11/08 05:03:30;;;;;;;81.65;42.30;;;333.20;2329.60;;;;;;5075984;28;20020;-77
2022/11/08 05:06:00;;;;;;;85.95;45.63;;;333.20;2329.60;;;;;;5084481;28;20020;-77
2022/11/08 05:08:26;;;;;;;96.43;48.95;;;333.20;2329.60;;;;;;5076051;28;20020;-77
2022/11/08 05:10:52;;;;;;;103.32;48.83;;;333.30;2329.60;;;;;;5077317;28;20036;-77
2022/11/08 05:13:17;;;;;;;100.40;47.17;;;333.30;2329.60;;;;;;5082512;28;20530;-76
2022/11/08 05:15:43;;;;;;;109.82;51.35;;;333.30;2329.60;;;;;;5093298;28;20048;-77
2022/11/08 05:18:09;;;;;;;102.25;48.45;;;333.30;2329.60;;;;;;5075287;28;20051;-76
2022/11/08 05:23:24;;;;;;;94.15;46.53;;;333.30;2329.60;;;;;;5079341;28;20031;-77
2022/11/08 05:25:52;;;;;;;93.57;46.05;;;333.30;2329.60;;;;;;5081358;28;20021;-78
2022/11/08 05:28:18;;;;;;;89.45;46.03;;;333.30;2329.60;;;;;;5085092;28;20028;-77
2022/11/08 05:30:43;;;;;;;88.85;44.67;;;333.40;2329.60;;;;;;5074379;28;20092;-75
2022/11/08 05:33:12;;;;;;;82.25;42.55;;;333.30;2329.60;;;;;;5074091;28;20028;-76
2022/11/08 05:35:38;;;;;;;79.55;41.17;;;333.30;2329.60;;;;;;5081389;28;20024;-79
2022/11/08 05:38:04;;;;;;;77.75;40.70;;;333.30;2329.60;;;;;;5086015;28;20077;-79
2022/11/08 05:40:31;;;;;;;88.03;43.50;;;333.30;2329.60;;;;;;5085802;28;20032;-79
2022/11/08 05:42:56;;;;;;;84.55;40.05;;;333.30;2329.60;;;;;;5080781;28;20081;-78
2022/11/08 05:45:22;;;;;;;79.50;39.78;;;333.30;2329.60;;;;;;5086672;28;20036;-79
2022/11/08 05:47:48;;;;;;;80.07;40.88;;;333.30;2329.60;;;;;;5081179;28;20523;-77
2022/11/08 05:50:14;;;;;;;77.55;40.60;;;333.30;2329.60;;;;;;5078019;28;20795;-79
2022/11/08 05:52:40;;;;;;;78.43;40.17;;;333.30;2329.60;;;;;;5079637;28;20481;-83
2022/11/08 05:55:06;;;;;;;83.85;41.70;;;333.30;2329.60;;;;;;5084808;28;20035;-79
2022/11/08 05:57:31;;;;;;;78.00;40.80;;;333.40;2329.60;;;;;;5083364;28;20040;-79
2022/11/08 05:59:57;;;;;;;81.43;41.40;;;333.40;2329.60;;;;;;5086311;28;20031;-79
2022/11/08 06:02:23;;;;;;;79.38;40.75;;;333.40;2329.60;;;;;;5089042;28;20420;-79
2022/11/08 06:04:49;;;;;;;84.00;42.50;;;333.40;2329.60;;;;;;5078107;28;20017;-79
2022/11/08 06:07:14;;;;;;;88.55;42.70;;;333.40;2329.60;;;;;;5079699;28;20024;-81
2022/11/08 06:09:40;;;;;;;89.70;43.90;;;333.40;2329.60;;;;;;5076617;28;20048;-80
2022/11/08 06:12:06;;;;;;;90.85;44.10;;;333.40;2329.60;;;;;;5077381;28;20075;-78
2022/11/08 06:14:32;;;;;;;86.70;43.53;;;333.40;2329.60;;;;;;5082067;28;20016;-78
2022/11/08 06:16:58;;;;;;;92.00;46.72;;;333.40;2329.60;;;;;;5076983;28;20107;-78
2022/11/08 06:19:24;;;;;;;96.32;45.97;;;333.40;2329.60;;;;;;5081788;28;20422;-79
2022/11/08 06:21:49;;;;;;;100.63;47.03;;;333.40;2329.60;;;;;;5079875;28;20184;-78
2022/11/08 06:24:16;;;;;;;89.45;44.17;;;333.40;2329.60;;;;;;5072915;28;20414;-77
2022/11/08 06:26:42;;;;;;;94.20;44.42;;;333.40;2329.60;;;;;;5076716;28;20032;-78
2022/11/08 06:29:08;;;;;;;97.97;46.78;;;333.30;2329.60;;;;;;5079773;28;20021;-78
2022/11/08 06:31:34;;;;;;;99.85;48.33;;;333.30;2329.60;;;;;;5072357;28;20063;-78
2022/11/08 06:34:01;;;;;;;97.72;47.50;;;333.30;2329.60;;;;;;5075124;28;20531;-79
2022/11/08 06:36:26;;;;;;;93.47;45.88;;;333.40;2329.60;;;;;;5103318;28;20023;-80
2022/11/08 06:38:53;;;;;;;89.78;46.25;;;333.40;2329.60;;;;;;5092320;28;20344;-84
2022/11/08 06:41:19;;;;;;;96.53;47.80;;;333.50;2329.60;;;;;;5106510;28;20477;-78
2022/11/08 06:43:45;;;;;;;86.63;45.17;;;333.20;2329.60;;;;;;5111944;28;20024;-77
2022/11/08 06:46:11;;;;;;;91.03;46.22;;;333.50;2329.60;;;;;;5097484;28;20049;-76
2022/11/08 06:48:36;;;;;;;92.43;46.97;;;333.50;2329.60;;;;;;5111887;28;20072;-77
2022/11/08 06:51:03;;;;;;;89.30;45.53;;;333.50;2329.60;;;;;;5111603;28;20495;-78
2022/11/08 06:53:28;;;;;;;99.20;47.33;;;333.40;2329.60;;;;;;5096876;28;20461;-77
2022/11/08 06:55:54;;;;;;;105.45;48.10;;;333.40;2329.60;;;;;;5112879;28;20024;-79
2022/11/08 06:58:20;;;;;;;100.25;50.78;;;333.40;2329.60;;;;;;5086857;28;20047;-78
2022/11/08 07:00:45;;;;;;;102.55;48.25;;;333.50;2329.60;;;;;;5089973;28;20036;-77
2022/11/08 07:03:13;;;;;;;101.80;49.08;;;333.50;2329.60;;;;;;5076397;28;20474;-80
2022/11/08 07:05:39;;;;;;;102.40;51.05;;;333.50;2329.60;;;;;;5099472;28;20028;-77
2022/11/08 07:08:05;;;;;;;103.90;49.92;;;333.50;2329.60;;;;;;5099177;28;20127;-78
2022/11/08 07:10:32;;;;;;;109.38;51.95;;;333.50;2329.60;;;;;;5086806;28;20085;-80
2022/11/08 07:13:02;;;;;;;110.57;51.20;;;333.50;2329.60;;;;;;5082868;28;20050;-77
2022/11/08 07:15:29;;;;;;;137.48;56.67;;;333.60;2329.60;;;;;;5071143;28;20013;-75
2022/11/08 07:18:19;;;;;;;124.28;57.95;;;333.60;2329.60;;;;;;5083664;28;20039;-78
2022/11/08 07:20:45;;;;;;;136.55;65.90;;;333.70;2329.60;;;;;;5083529;28;20024;-76
2022/11/08 07:23:11;;;;;;;136.40;66.93;;;333.70;2329.60;;;;;;5084593;28;20114;-77
2022/11/08 07:25:37;;;;;;;120.75;60.35;;;333.70;2329.60;;;;;;5073679;28;20503;-79
2022/11/08 07:28:05;;;;;;;119.53;60.70;;;333.70;2329.60;;;;;;5098429;28;20119;-85
2022/11/08 07:30:34;;;;;;;119.65;56.13;;;333.70;2329.60;;;;;;5110086;28;20057;-80
2022/11/08 07:33:00;;;;;;;120.05;57.90;;;333.70;2329.60;;;;;;5106188;28;20477;-88
2022/11/08 07:35:26;;;;;;;105.85;52.38;;;358.40;2329.60;;;;;;5111930;28;20055;-83
2022/11/08 07:37:52;;;;;;;107.03;52.42;;;358.40;2329.60;;;;;;5085605;28;20032;-82
2022/11/08 07:40:18;;;;;;;102.03;50.58;;;358.40;2329.60;;;;;;5083123;28;20079;-84
2022/11/08 07:42:44;;;;;;;97.93;53.05;;;358.50;2329.60;;;;;;5081877;28;20481;-82
2022/11/08 07:45:10;;;;;;;97.80;50.70;;;358.50;2329.60;;;;;;5101022;28;20027;-83
2022/11/08 07:47:36;;;;;;;95.28;49.53;;;358.60;2329.60;;;;;;5103216;28;20032;-82
2022/11/08 07:50:03;;;;;;;102.63;53.65;;;358.60;2329.60;;;;;;5091975;28;20035;-81
2022/11/08 07:52:29;;;;;;;95.97;50.72;;;358.70;2329.60;;;;;;5083739;28;20036;-80
2022/11/08 07:54:54;;;;;;;93.68;49.65;;;358.80;2329.60;;;;;;5082935;28;20488;-79
2022/11/08 07:57:20;;;;;;;90.05;47.70;;;358.80;2329.60;;;;;;5087222;28;20028;-79
2022/11/08 07:59:46;;;;;;;95.35;49.53;;;358.80;2329.60;;;;;;5081279;28;20025;-79
2022/11/08 08:02:12;;;;;;;91.88;47.58;;;358.80;2329.60;;;;;;5114856;28;20069;-81
2022/11/08 08:04:38;;;;;;;88.55;47.65;;;358.80;2329.60;;;;;;5100428;28;20476;-79
2022/11/08 08:07:04;;;;;;;92.00;46.15;;;358.80;2329.60;;;;;;5095127;28;20031;-80
2022/11/08 08:09:30;;;;;;;86.57;45.72;;;358.80;2329.60;;;;;;5076768;28;20031;-80
2022/11/08 08:11:56;;;;;;;82.50;46.58;;;358.80;2329.60;;;;;;5077459;28;20135;-79
2022/11/08 08:14:21;;;;;;;89.13;48.58;;;358.90;2329.60;;;;;;5090253;28;20123;-82
2022/11/08 08:16:47;;;;;;;80.90;44.45;;;358.90;2329.60;;;;;;5080696;28;20036;-82
2022/11/08 08:19:14;;;;;;;92.07;47.00;;;359.00;2329.60;;;;;;5081640;28;20033;-81
2022/11/08 08:21:41;;;;;;;89.95;48.50;;;359.00;2329.60;;;;;;5082971;28;20063;-82
2022/11/08 08:24:07;;;;;;;81.75;44.60;;;359.00;2329.60;;;;;;5093966;28;20024;-84
2022/11/08 08:26:33;;;;;;;84.90;46.55;;;359.00;2329.60;;;;;;5096746;28;20081;-76
2022/11/08 08:28:58;;;;;;;85.97;47.72;;;359.00;2329.60;;;;;;5106806;28;20039;-74
2022/11/08 08:31:24;;;;;;;90.30;48.50;;;359.00;2329.60;;;;;;5082837;28;20451;-79
2022/11/08 08:33:50;;;;;;;81.47;45.10;;;359.00;2329.60;;;;;;5084760;28;20024;-78
2022/11/08 08:36:16;;;;;;;84.72;47.28;;;358.90;2329.60;;;;;;5091517;28;20036;-79
2022/11/08 08:38:41;;;;;;;97.65;49.97;;;359.00;2329.60;;;;;;5078197;28;20032;-76
2022/11/08 08:41:07;;;;;;;88.45;48.50;;;359.00;2329.60;;;;;;5086927;28;20040;-76
2022/11/08 08:43:33;;;;;;;87.57;47.10;;;359.00;2329.60;;;;;;5082375;28;20035;-76
2022/11/08 08:46:03;;;;;;;96.55;53.33;;;359.00;2329.60;;;;;;5065999;28;20032;-78
2022/11/08 08:48:29;;;;;;;92.63;54.20;;;359.10;2329.60;;;;;;5077492;28;20095;-77
2022/11/08 08:50:55;;;;;;;88.80;49.13;;;359.30;2329.60;;;;;;5085344;28;20430;-88
2022/11/08 08:53:21;;;;;;;81.50;45.70;;;384.00;2329.60;;;;;;5082641;28;20040;-78
2022/11/08 08:55:47;;;;;;;76.93;46.42;;;384.10;2329.60;;;;;;5102880;28;20036;-78
2022/11/08 08:58:13;;;;;;;83.20;46.50;;;384.30;2329.60;;;;;;5102494;28;20019;-80
2022/11/08 09:00:39;;;;;;;83.05;47.83;;;384.40;2329.60;;;;;;5099903;28;20020;-77
2022/11/08 09:03:07;;;;;;;83.72;48.50;;;384.40;2329.60;;;;;;5112936;28;20403;-77
2022/11/08 09:05:33;;;;;;;86.68;45.60;;;384.30;2329.60;;;;;;5114845;28;20085;-76
2022/11/08 09:07:59;;;;;;;81.47;48.35;;;384.20;2329.60;;;;;;5114176;28;20073;-74
2022/11/08 09:10:26;;;;;;;81.40;47.38;;;384.10;2329.60;;;;;;5090000;28;20033;-74
2022/11/08 09:12:51;;;;;;;82.93;47.35;;;384.00;2329.60;;;;;;5087585;28;20044;-74
2022/11/08 09:15:17;;;;;;;79.20;46.38;;;384.00;2329.60;;;;;;5080628;28;20108;-74
2022/11/08 09:17:43;;;;;;;82.43;47.80;;;384.20;2329.60;;;;;;5075540;28;20058;-75
2022/11/08 09:20:10;;;;;;;87.55;46.72;;;384.50;2329.60;;;;;;5092204;28;20067;-73
2022/11/08 09:22:36;;;;;;;83.80;48.60;;;384.60;2329.60;;;;;;5077424;28;20055;-75
2022/11/08 09:25:03;;;;;;;78.65;46.95;;;409.60;2355.20;;;;;;5078441;28;20012;-73
2022/11/08 09:27:30;;;;;;;97.30;52.10;;;409.70;2355.20;;;;;;5072860;28;20149;-74
2022/11/08 09:29:59;;;;;;;85.10;47.60;;;409.60;2355.20;;;;;;5076683;28;20021;-74
2022/11/08 09:32:28;;;;;;;76.78;45.45;;;409.60;2355.20;;;;;;5073667;28;20485;-73
2022/11/08 09:34:56;;;;;;;76.82;44.60;;;384.90;2329.60;;;;;;5078266;28;20495;-75
2022/11/08 09:37:23;;;;;;;78.28;43.30;;;409.60;2355.20;;;;;;5077997;28;20439;-73
2022/11/08 09:39:49;;;;;;;70.90;43.22;;;409.80;2355.20;;;;;;5075373;28;20025;-74
2022/11/08 09:42:35;;;;;;;63.00;40.22;;;409.70;2355.20;;;;;;5076822;28;20531;-77
2022/11/08 09:45:09;;;;;;;74.50;43.53;;;409.60;2355.20;;;;;;5067547;28;20024;-74
2022/11/08 09:47:43;;;;;;;73.18;40.70;;;409.60;2355.20;;;;;;5079492;28;20039;-76
2022/11/08 09:50:25;;;;;;;73.13;43.60;;;410.00;2355.20;;;;;;5101637;28;20111;-74
2022/11/08 09:53:20;;;;;;;66.88;41.72;;;409.60;2355.20;;;;;;5110967;28;20031;-74
2022/11/08 09:55:45;;;;;;;70.18;42.67;;;384.90;2329.60;;;;;;5113414;28;20028;-74
2022/11/08 09:58:27;;;;;;;72.05;43.13;;;384.90;2329.60;;;;;;5110043;28;20023;-77
2022/11/08 10:00:53;;;;;;;73.00;43.97;;;384.70;2329.60;;;;;;5077747;28;20418;-76
2022/11/08 10:03:25;;;;;;;76.78;46.10;;;384.60;2329.60;;;;;;5070883;28;20028;-74
2022/11/08 10:06:00;;;;;;;77.55;45.53;;;384.90;2329.60;;;;;;5073406;28;20027;-78
2022/11/08 10:08:25;;;;;;;67.05;39.42;;;409.60;2355.20;;;;;;5075512;28;20052;-77
2022/11/08 10:11:05;;;;;;;78.32;43.28;;;384.90;2329.60;;;;;;5072760;28;20470;-74
2022/11/08 10:13:43;;;;;;;75.20;41.53;;;384.70;2329.60;;;;;;5071904;28;20029;-76
2022/11/08 10:16:17;;;;;;;71.90;42.97;;;384.70;2329.60;;;;;;5078575;28;20090;-75
2022/11/08 10:19:11;;;;;;;82.38;44.70;;;384.80;2329.60;;;;;;5077058;28;20029;-75
2022/11/08 10:22:02;;;;;;;70.35;42.53;;;409.70;2355.20;;;;;;5112940;28;20027;-75
2022/11/08 10:24:49;;;;;;;60.22;39.70;;;410.00;2355.20;;;;;;5087911;28;20031;-74
2022/11/08 10:27:38;;;;;;;65.18;41.25;;;410.50;2355.20;;;;;;5090933;28;20667;-76
2022/11/08 10:30:13;;;;;;;60.55;38.60;;;410.30;2355.20;;;;;;5113103;28;20024;-77
2022/11/08 10:32:39;;;;;;;71.85;39.67;;;410.00;2355.20;;;;;;5107593;28;20039;-73
2022/11/08 10:35:18;;;;;;;70.45;41.60;;;409.80;2355.20;;;;;;5104055;28;20024;-75
2022/11/08 10:37:46;;;;;;;71.43;44.60;;;409.70;2355.20;;;;;;5110133;28;20057;-74
2022/11/08 10:40:32;;;;;;;69.95;41.70;;;409.60;2355.20;;;;;;5078793;28;20028;-77
2022/11/08 10:43:06;;;;;;;73.88;43.13;;;409.60;2355.20;;;;;;5085865;28;20047;-76
2022/11/08 10:45:31;;;;;;;85.07;48.17;;;384.70;2329.60;;;;;;5074137;28;20066;-76
2022/11/08 10:47:57;;;;;;;76.93;43.45;;;384.70;2329.60;;;;;;5077144;28;20408;-78
2022/11/08 10:50:39;;;;;;;71.53;43.95;;;384.70;2329.60;;;;;;5070125;28;20112;-76
2022/11/08 10:53:08;;;;;;;74.68;43.38;;;384.60;2329.60;;;;;;5076460;28;20024;-74
2022/11/08 10:55:37;;;;;;;76.80;44.97;;;384.50;2329.60;;;;;;5084389;28;20534;-74
2022/11/08 10:58:24;;;;;;;76.30;44.58;;;384.40;2329.60;;;;;;5074083;28;20021;-74
2022/11/08 11:01:14;;;;;;;75.90;45.60;;;384.40;2329.60;;;;;;5070816;28;20034;-75
2022/11/08 11:03:40;;;;;;;79.47;46.03;;;384.30;2329.60;;;;;;5079783;28;20094;-76
2022/11/08 11:06:23;;;;;;;80.60;45.20;;;384.40;2329.60;;;;;;5100482;28;20107;-75
2022/11/08 11:09:16;;;;;;;77.30;45.67;;;384.40;2329.60;;;;;;5112286;28;20058;-75
2022/11/08 11:11:42;;;;;;;73.70;42.90;;;384.50;2329.60;;;;;;5111896;28;20048;-76
2022/11/08 11:14:12;;;;;;;70.15;41.83;;;384.50;2329.60;;;;;;5112900;28;20044;-75
2022/11/08 11:16:53;;;;;;;66.63;39.10;;;384.40;2329.60;;;;;;5106119;28;20024;-73
2022/11/08 11:19:19;;;;;;;71.43;42.28;;;384.50;2329.60;;;;;;5107487;28;20024;-76
2022/11/08 11:22:03;;;;;;;69.93;42.03;;;384.50;2329.60;;;;;;5112200;28;20407;-78
2022/11/08 11:24:29;;;;;;;74.05;40.58;;;384.50;2329.60;;;;;;5112227;28;20027;-75
2022/11/08 11:26:55;;;;;;;79.10;42.40;;;384.60;2329.60;;;;;;5110727;28;20036;-77
2022/11/08 11:29:35;;;;;;;76.38;40.90;;;384.60;2329.60;;;;;;5112245;28;20534;-78
2022/11/08 11:32:22;;;;;;;64.78;35.50;;;384.50;2329.60;;;;;;5087954;28;20016;-80
2022/11/08 11:34:53;;;;;;;68.55;38.80;;;384.50;2329.60;;;;;;5111025;28;20019;-76
2022/11/08 11:37:35;;;;;;;68.63;39.63;;;384.40;2329.60;;;;;;5087755;28;20450;-76
2022/11/08 11:40:32;;;;;;;76.10;41.70;;;384.40;2329.60;;;;;;5072151;28;20473;-76
2022/11/08 11:43:23;;;;;;;76.00;44.63;;;384.50;2329.60;;;;;;5081812;28;20043;-76
2022/11/08 11:46:02;;;;;;;84.15;50.72;;;384.60;2329.60;;;;;;5069550;28;20032;-77
2022/11/08 11:48:30;;;;;;;85.30;47.95;;;384.60;2329.60;;;;;;5074831;28;20040;-78
2022/11/08 11:50:57;;;;;;;87.78;50.22;;;384.70;2329.60;;;;;;5082196;28;20369;-77
2022/11/08 11:53:29;;;;;;;90.43;50.67;;;384.90;2329.60;;;;;;5080616;28;20118;-78
2022/11/08 11:56:27;;;;;;;90.03;51.85;;;384.70;2329.60;;;;;;5079024;28;20015;-78
2022/11/08 11:59:04;;;;;;;81.05;46.13;;;384.60;2329.60;;;;;;5110023;28;20173;-79
2022/11/08 12:01:36;;;;;;;77.22;45.67;;;384.50;2329.60;;;;;;5102526;28;20024;-78
2022/11/08 12:04:20;;;;;;;88.05;47.50;;;384.40;2329.60;;;;;;5090249;28;20028;-79
2022/11/08 12:07:05;;;;;;;82.95;45.58;;;384.40;2329.60;;;;;;5082755;28;20107;-77
2022/11/08 12:09:41;;;;;;;81.50;43.30;;;384.30;2329.60;;;;;;5113380;28;20065;-78
2022/11/08 12:12:25;;;;;;;90.90;40.97;;;384.30;2329.60;;;;;;5114686;28;20054;-79
2022/11/08 12:14:55;;;;;;;74.57;39.38;;;384.30;2329.60;;;;;;5095056;28;20059;-78
2022/11/08 12:17:41;;;;;;;84.25;42.38;;;384.30;2329.60;;;;;;5080937;28;20104;-79
2022/11/08 12:20:13;;;;;;;94.75;49.45;;;384.30;2329.60;;;;;;5012395;28;20192;-79
2022/11/08 12:22:58;;;;;;;99.63;50.22;;;384.20;2329.60;;;;;;5012498;28;20053;-79
2022/11/08 12:25:51;;;;;;;105.90;56.20;;;384.20;2329.60;;;;;;4990762;28;20575;-79